Terminal Aerodrome Forecast
Issued by NWS

Home | Current Version | Previous Version | Text Only | Print | Product List | Glossary On
Versions: 1 2 3 4 5 6 7 8 9 10 11 12 13 14 15 16 17 18 19 20 21
000
FTUS46 KMTR 231100
TAFSTS
TAF
KSTS 231135Z 2312/2412 VRB03KT P6SM OVC008
     FM231800 23004KT P6SM BKN015
     FM232100 19008KT P6SM BKN035
     FM240300 17004KT P6SM SKC
     FM240800 00000KT P6SM OVC007=

USA.gov is the U.S. government's official web portal to all federal, state and local government web resources and services.